sensor_id;sensor_type;location;lat;lon;timestamp;P1;durP1;ratioP1;P2;durP2;ratioP2
76403;SDS011;65232;48.358;2.122;2023-10-13T00:00:24;7.93;;;3.50;;
76403;SDS011;65232;48.358;2.122;2023-10-13T00:00:54;6.65;;;2.95;;
76403;SDS011;65232;48.358;2.122;2023-10-13T00:01:22;7.25;;;3.85;;
76403;SDS011;65232;48.358;2.122;2023-10-13T00:01:48;8.50;;;3.00;;
76403;SDS011;65232;48.358;2.122;2023-10-13T00:02:16;6.28;;;3.25;;
76403;SDS011;65232;48.358;2.122;2023-10-13T00:02:46;9.10;;;3.40;;
76403;SDS011;65232;48.358;2.122;2023-10-13T00:03:13;7.30;;;3.03;;
76403;SDS011;65232;48.358;2.122;2023-10-13T00:03:42;8.75;;;3.80;;
76403;SDS011;65232;48.358;2.122;2023-10-13T00:04:07;5.47;;;3.35;;
76403;SDS011;65232;48.358;2.122;2023-10-13T00:04:33;6.95;;;3.53;;
76403;SDS011;65232;48.358;2.122;2023-10-13T00:05:00;5.28;;;3.25;;
76403;SDS011;65232;48.358;2.122;2023-10-13T00:05:29;6.22;;;3.35;;
76403;SDS011;65232;48.358;2.122;2023-10-13T00:05:57;5.90;;;3.10;;
76403;SDS011;65232;48.358;2.122;2023-10-13T00:06:25;8.35;;;3.30;;
76403;SDS011;65232;48.358;2.122;2023-10-13T00:06:52;7.85;;;3.45;;
76403;SDS011;65232;48.358;2.122;2023-10-13T00:07:18;7.07;;;3.13;;
76403;SDS011;65232;48.358;2.122;2023-10-13T00:07:43;11.18;;;3.00;;
76403;SDS011;65232;48.358;2.122;2023-10-13T00:08:09;8.07;;;3.63;;
76403;SDS011;65232;48.358;2.122;2023-10-13T00:08:35;7.22;;;3.53;;
76403;SDS011;65232;48.358;2.122;2023-10-13T00:09:01;6.20;;;3.38;;
76403;SDS011;65232;48.358;2.122;2023-10-13T00:09:28;6.25;;;3.45;;
76403;SDS011;65232;48.358;2.122;2023-10-13T00:10:03;7.30;;;3.20;;
76403;SDS011;65232;48.358;2.122;2023-10-13T00:10:39;7.22;;;3.65;;
76403;SDS011;65232;48.358;2.122;2023-10-13T00:11:05;6.18;;;3.50;;
76403;SDS011;65232;48.358;2.122;2023-10-13T00:11:57;7.18;;;2.50;;
76403;SDS011;65232;48.358;2.122;2023-10-13T00:12:48;5.95;;;3.17;;
76403;SDS011;65232;48.358;2.122;2023-10-13T00:13:18;6.15;;;2.80;;
76403;SDS011;65232;48.358;2.122;2023-10-13T00:13:45;6.50;;;3.25;;
76403;SDS011;65232;48.358;2.122;2023-10-13T00:14:18;6.10;;;3.40;;
76403;SDS011;65232;48.358;2.122;2023-10-13T00:14:43;6.15;;;3.00;;
76403;SDS011;65232;48.358;2.122;2023-10-13T00:15:10;5.50;;;3.00;;
76403;SDS011;65232;48.358;2.122;2023-10-13T00:15:42;7.68;;;3.33;;
76403;SDS011;65232;48.358;2.122;2023-10-13T00:16:22;11.18;;;3.15;;
76403;SDS011;65232;48.358;2.122;2023-10-13T00:16:47;8.02;;;3.50;;
76403;SDS011;65232;48.358;2.122;2023-10-13T00:17:28;5.80;;;3.30;;
76403;SDS011;65232;48.358;2.122;2023-10-13T00:17:55;7.53;;;3.38;;
76403;SDS011;65232;48.358;2.122;2023-10-13T00:18:20;5.82;;;2.80;;
76403;SDS011;65232;48.358;2.122;2023-10-13T00:18:46;6.95;;;3.03;;
76403;SDS011;65232;48.358;2.122;2023-10-13T00:19:13;5.05;;;2.83;;
76403;SDS011;65232;48.358;2.122;2023-10-13T00:19:38;6.63;;;2.97;;
76403;SDS011;65232;48.358;2.122;2023-10-13T00:20:11;5.20;;;3.05;;
76403;SDS011;65232;48.358;2.122;2023-10-13T00:21:02;6.85;;;3.55;;
76403;SDS011;65232;48.358;2.122;2023-10-13T00:21:37;8.48;;;3.80;;
76403;SDS011;65232;48.358;2.122;2023-10-13T00:22:03;9.43;;;3.47;;
76403;SDS011;65232;48.358;2.122;2023-10-13T00:22:40;7.60;;;3.58;;
76403;SDS011;65232;48.358;2.122;2023-10-13T00:23:06;7.22;;;3.33;;
76403;SDS011;65232;48.358;2.122;2023-10-13T00:23:32;6.75;;;3.28;;
76403;SDS011;65232;48.358;2.122;2023-10-13T00:23:58;6.13;;;2.88;;
76403;SDS011;65232;48.358;2.122;2023-10-13T00:24:26;6.75;;;3.00;;
76403;SDS011;65232;48.358;2.122;2023-10-13T00:24:55;7.00;;;3.40;;
76403;SDS011;65232;48.358;2.122;2023-10-13T00:25:23;7.45;;;3.55;;
76403;SDS011;65232;48.358;2.122;2023-10-13T00:25:53;6.78;;;3.22;;
76403;SDS011;65232;48.358;2.122;2023-10-13T00:26:26;8.60;;;3.42;;
76403;SDS011;65232;48.358;2.122;2023-10-13T00:26:53;9.00;;;3.33;;
76403;SDS011;65232;48.358;2.122;2023-10-13T00:27:19;8.68;;;3.80;;
76403;SDS011;65232;48.358;2.122;2023-10-13T00:27:54;9.30;;;3.42;;
76403;SDS011;65232;48.358;2.122;2023-10-13T00:28:20;7.60;;;4.68;;
76403;SDS011;65232;48.358;2.122;2023-10-13T00:28:49;6.80;;;3.53;;
76403;SDS011;65232;48.358;2.122;2023-10-13T00:29:24;6.78;;;3.13;;
76403;SDS011;65232;48.358;2.122;2023-10-13T00:30:03;6.70;;;2.80;;
76403;SDS011;65232;48.358;2.122;2023-10-13T00:30:42;7.13;;;3.42;;
76403;SDS011;65232;48.358;2.122;2023-10-13T00:31:15;6.07;;;2.83;;
76403;SDS011;65232;48.358;2.122;2023-10-13T00:31:42;5.35;;;3.13;;
76403;SDS011;65232;48.358;2.122;2023-10-13T00:32:08;7.72;;;3.10;;
76403;SDS011;65232;48.358;2.122;2023-10-13T00:32:37;7.30;;;3.55;;
76403;SDS011;65232;48.358;2.122;2023-10-13T00:33:05;9.10;;;3.60;;
76403;SDS011;65232;48.358;2.122;2023-10-13T00:33:33;6.38;;;3.00;;
76403;SDS011;65232;48.358;2.122;2023-10-13T00:34:01;8.13;;;3.17;;
76403;SDS011;65232;48.358;2.122;2023-10-13T00:34:50;11.63;;;3.70;;
76403;SDS011;65232;48.358;2.122;2023-10-13T00:35:21;6.88;;;3.70;;
76403;SDS011;65232;48.358;2.122;2023-10-13T00:35:50;8.50;;;3.45;;
76403;SDS011;65232;48.358;2.122;2023-10-13T00:36:18;6.70;;;3.45;;
76403;SDS011;65232;48.358;2.122;2023-10-13T00:36:45;6.82;;;3.33;;
76403;SDS011;65232;48.358;2.122;2023-10-13T00:37:13;9.70;;;3.42;;
76403;SDS011;65232;48.358;2.122;2023-10-13T00:37:43;6.80;;;3.53;;
76403;SDS011;65232;48.358;2.122;2023-10-13T00:38:11;7.22;;;3.03;;
76403;SDS011;65232;48.358;2.122;2023-10-13T00:38:42;7.68;;;3.47;;
76403;SDS011;65232;48.358;2.122;2023-10-13T00:39:07;8.82;;;3.03;;
76403;SDS011;65232;48.358;2.122;2023-10-13T00:39:33;6.20;;;3.38;;
76403;SDS011;65232;48.358;2.122;2023-10-13T00:40:01;5.70;;;2.85;;
76403;SDS011;65232;48.358;2.122;2023-10-13T00:40:33;9.32;;;3.33;;
76403;SDS011;65232;48.358;2.122;2023-10-13T00:40:58;7.82;;;3.00;;
76403;SDS011;65232;48.358;2.122;2023-10-13T00:41:38;7.28;;;3.05;;
76403;SDS011;65232;48.358;2.122;2023-10-13T00:42:17;6.80;;;3.08;;
76403;SDS011;65232;48.358;2.122;2023-10-13T00:42:51;7.72;;;3.53;;
76403;SDS011;65232;48.358;2.122;2023-10-13T00:43:18;7.72;;;3.65;;
76403;SDS011;65232;48.358;2.122;2023-10-13T00:43:45;5.60;;;3.05;;
76403;SDS011;65232;48.358;2.122;2023-10-13T00:44:29;5.25;;;2.88;;
76403;SDS011;65232;48.358;2.122;2023-10-13T00:45:03;7.32;;;3.28;;
76403;SDS011;65232;48.358;2.122;2023-10-13T00:45:30;10.80;;;3.03;;
76403;SDS011;65232;48.358;2.122;2023-10-13T00:45:59;5.68;;;3.45;;
76403;SDS011;65232;48.358;2.122;2023-10-13T00:46:29;6.75;;;3.15;;
76403;SDS011;65232;48.358;2.122;2023-10-13T00:46:58;6.28;;;3.40;;
76403;SDS011;65232;48.358;2.122;2023-10-13T00:47:23;6.50;;;3.30;;
76403;SDS011;65232;48.358;2.122;2023-10-13T00:48:18;8.60;;;3.17;;
76403;SDS011;65232;48.358;2.122;2023-10-13T00:48:43;6.93;;;3.17;;
76403;SDS011;65232;48.358;2.122;2023-10-13T00:49:20;6.03;;;3.00;;
76403;SDS011;65232;48.358;2.122;2023-10-13T00:49:47;5.80;;;3.35;;
76403;SDS011;65232;48.358;2.122;2023-10-13T00:50:13;8.18;;;3.33;;
76403;SDS011;65232;48.358;2.122;2023-10-13T00:50:41;6.78;;;3.17;;
76403;SDS011;65232;48.358;2.122;2023-10-13T00:51:12;6.85;;;3.45;;
76403;SDS011;65232;48.358;2.122;2023-10-13T00:51:58;8.32;;;3.42;;
76403;SDS011;65232;48.358;2.122;2023-10-13T00:52:23;10.15;;;3.53;;
76403;SDS011;65232;48.358;2.122;2023-10-13T00:52:49;10.95;;;3.90;;
76403;SDS011;65232;48.358;2.122;2023-10-13T00:53:20;7.32;;;2.90;;
76403;SDS011;65232;48.358;2.122;2023-10-13T00:53:48;7.55;;;3.38;;
76403;SDS011;65232;48.358;2.122;2023-10-13T00:54:14;4.72;;;3.33;;
76403;SDS011;65232;48.358;2.122;2023-10-13T00:54:41;7.40;;;3.33;;
76403;SDS011;65232;48.358;2.122;2023-10-13T00:55:11;5.97;;;2.97;;
76403;SDS011;65232;48.358;2.122;2023-10-13T00:55:38;9.25;;;3.20;;
76403;SDS011;65232;48.358;2.122;2023-10-13T00:56:07;6.35;;;3.90;;
76403;SDS011;65232;48.358;2.122;2023-10-13T00:56:33;9.88;;;4.32;;
76403;SDS011;65232;48.358;2.122;2023-10-13T00:56:59;8.25;;;3.70;;
76403;SDS011;65232;48.358;2.122;2023-10-13T00:57:36;13.38;;;4.13;;
76403;SDS011;65232;48.358;2.122;2023-10-13T00:58:02;6.22;;;3.20;;
76403;SDS011;65232;48.358;2.122;2023-10-13T00:58:28;8.98;;;3.35;;
76403;SDS011;65232;48.358;2.122;2023-10-13T00:58:54;9.73;;;3.40;;
76403;SDS011;65232;48.358;2.122;2023-10-13T00:59:23;9.85;;;3.72;;
76403;SDS011;65232;48.358;2.122;2023-10-13T00:59:50;9.73;;;3.80;;
76403;SDS011;65232;48.358;2.122;2023-10-13T01:00:18;11.23;;;4.07;;
76403;SDS011;65232;48.358;2.122;2023-10-13T01:00:44;12.05;;;4.20;;
76403;SDS011;65232;48.358;2.122;2023-10-13T01:01:12;14.35;;;4.65;;
76403;SDS011;65232;48.358;2.122;2023-10-13T01:01:43;10.57;;;4.05;;
76403;SDS011;65232;48.358;2.122;2023-10-13T01:02:09;13.25;;;4.65;;
76403;SDS011;65232;48.358;2.122;2023-10-13T01:02:53;14.35;;;3.88;;
76403;SDS011;65232;48.358;2.122;2023-10-13T01:03:30;7.82;;;4.25;;
76403;SDS011;65232;48.358;2.122;2023-10-13T01:03:56;7.10;;;3.58;;
76403;SDS011;65232;48.358;2.122;2023-10-13T01:04:24;11.80;;;4.38;;
76403;SDS011;65232;48.358;2.122;2023-10-13T01:04:53;11.55;;;3.70;;
76403;SDS011;65232;48.358;2.122;2023-10-13T01:05:19;9.45;;;4.25;;
76403;SDS011;65232;48.358;2.122;2023-10-13T01:05:45;8.73;;;4.15;;
76403;SDS011;65232;48.358;2.122;2023-10-13T01:06:11;11.48;;;4.38;;
76403;SDS011;65232;48.358;2.122;2023-10-13T01:06:38;13.05;;;4.63;;
76403;SDS011;65232;48.358;2.122;2023-10-13T01:07:04;12.70;;;4.40;;
76403;SDS011;65232;48.358;2.122;2023-10-13T01:07:33;10.57;;;4.20;;
76403;SDS011;65232;48.358;2.122;2023-10-13T01:08:02;11.10;;;4.05;;
76403;SDS011;65232;48.358;2.122;2023-10-13T01:08:34;13.65;;;4.18;;
76403;SDS011;65232;48.358;2.122;2023-10-13T01:09:04;14.43;;;4.55;;
76403;SDS011;65232;48.358;2.122;2023-10-13T01:09:41;9.25;;;4.65;;
76403;SDS011;65232;48.358;2.122;2023-10-13T01:10:10;10.95;;;3.75;;
76403;SDS011;65232;48.358;2.122;2023-10-13T01:10:39;11.70;;;4.32;;
76403;SDS011;65232;48.358;2.122;2023-10-13T01:11:06;11.00;;;4.32;;
76403;SDS011;65232;48.358;2.122;2023-10-13T01:11:33;10.38;;;4.28;;
76403;SDS011;65232;48.358;2.122;2023-10-13T01:12:00;12.65;;;4.32;;
76403;SDS011;65232;48.358;2.122;2023-10-13T01:12:25;8.60;;;4.15;;
76403;SDS011;65232;48.358;2.122;2023-10-13T01:12:51;10.48;;;4.45;;
76403;SDS011;65232;48.358;2.122;2023-10-13T01:13:20;9.25;;;3.67;;
76403;SDS011;65232;48.358;2.122;2023-10-13T01:13:47;11.23;;;3.83;;
76403;SDS011;65232;48.358;2.122;2023-10-13T01:14:16;10.77;;;4.07;;
76403;SDS011;65232;48.358;2.122;2023-10-13T01:14:42;11.60;;;4.15;;
76403;SDS011;65232;48.358;2.122;2023-10-13T01:15:09;9.95;;;4.63;;
76403;SDS011;65232;48.358;2.122;2023-10-13T01:15:36;9.10;;;4.25;;
76403;SDS011;65232;48.358;2.122;2023-10-13T01:16:02;9.13;;;4.30;;
76403;SDS011;65232;48.358;2.122;2023-10-13T01:16:30;11.27;;;4.65;;
76403;SDS011;65232;48.358;2.122;2023-10-13T01:16:55;10.32;;;4.38;;
76403;SDS011;65232;48.358;2.122;2023-10-13T01:17:23;11.40;;;4.50;;
76403;SDS011;65232;48.358;2.122;2023-10-13T01:17:48;12.18;;;4.40;;
76403;SDS011;65232;48.358;2.122;2023-10-13T01:18:14;11.93;;;4.68;;
76403;SDS011;65232;48.358;2.122;2023-10-13T01:18:41;9.73;;;4.35;;
76403;SDS011;65232;48.358;2.122;2023-10-13T01:19:13;8.02;;;3.38;;
76403;SDS011;65232;48.358;2.122;2023-10-13T01:19:43;8.50;;;4.57;;
76403;SDS011;65232;48.358;2.122;2023-10-13T01:20:10;9.35;;;4.25;;
76403;SDS011;65232;48.358;2.122;2023-10-13T01:20:39;9.63;;;4.47;;
76403;SDS011;65232;48.358;2.122;2023-10-13T01:21:17;11.50;;;4.20;;
76403;SDS011;65232;48.358;2.122;2023-10-13T01:21:47;9.50;;;3.97;;
76403;SDS011;65232;48.358;2.122;2023-10-13T01:22:14;10.10;;;4.60;;
76403;SDS011;65232;48.358;2.122;2023-10-13T01:22:39;9.70;;;4.65;;
76403;SDS011;65232;48.358;2.122;2023-10-13T01:23:09;13.98;;;4.70;;
76403;SDS011;65232;48.358;2.122;2023-10-13T01:23:43;8.10;;;3.50;;
76403;SDS011;65232;48.358;2.122;2023-10-13T01:24:10;7.45;;;3.65;;
76403;SDS011;65232;48.358;2.122;2023-10-13T01:24:41;7.18;;;3.53;;
76403;SDS011;65232;48.358;2.122;2023-10-13T01:25:06;12.55;;;4.53;;
76403;SDS011;65232;48.358;2.122;2023-10-13T01:25:35;9.23;;;3.90;;
76403;SDS011;65232;48.358;2.122;2023-10-13T01:26:01;9.68;;;4.15;;
76403;SDS011;65232;48.358;2.122;2023-10-13T01:26:30;11.32;;;3.60;;
76403;SDS011;65232;48.358;2.122;2023-10-13T01:26:58;13.68;;;4.43;;
76403;SDS011;65232;48.358;2.122;2023-10-13T01:27:35;12.38;;;4.47;;
76403;SDS011;65232;48.358;2.122;2023-10-13T01:28:03;7.88;;;3.70;;
76403;SDS011;65232;48.358;2.122;2023-10-13T01:28:32;8.05;;;3.55;;
76403;SDS011;65232;48.358;2.122;2023-10-13T01:29:09;9.75;;;3.92;;
76403;SDS011;65232;48.358;2.122;2023-10-13T01:29:38;13.07;;;4.15;;
76403;SDS011;65232;48.358;2.122;2023-10-13T01:30:05;11.60;;;3.70;;
76403;SDS011;65232;48.358;2.122;2023-10-13T01:30:35;9.13;;;3.97;;
76403;SDS011;65232;48.358;2.122;2023-10-13T01:31:03;8.45;;;4.13;;
76403;SDS011;65232;48.358;2.122;2023-10-13T01:31:28;11.75;;;3.90;;
76403;SDS011;65232;48.358;2.122;2023-10-13T01:31:56;6.78;;;3.63;;
76403;SDS011;65232;48.358;2.122;2023-10-13T01:32:22;8.02;;;4.00;;
76403;SDS011;65232;48.358;2.122;2023-10-13T01:32:51;8.88;;;3.85;;
76403;SDS011;65232;48.358;2.122;2023-10-13T01:33:19;11.02;;;4.10;;
76403;SDS011;65232;48.358;2.122;2023-10-13T01:33:52;12.00;;;4.05;;
76403;SDS011;65232;48.358;2.122;2023-10-13T01:34:23;11.75;;;4.40;;
76403;SDS011;65232;48.358;2.122;2023-10-13T01:34:49;10.80;;;3.95;;
76403;SDS011;65232;48.358;2.122;2023-10-13T01:35:21;13.07;;;4.10;;
76403;SDS011;65232;48.358;2.122;2023-10-13T01:35:52;9.85;;;4.22;;
76403;SDS011;65232;48.358;2.122;2023-10-13T01:36:20;8.70;;;3.78;;
76403;SDS011;65232;48.358;2.122;2023-10-13T01:37:19;10.57;;;3.85;;
76403;SDS011;65232;48.358;2.122;2023-10-13T01:37:45;10.40;;;3.88;;
76403;SDS011;65232;48.358;2.122;2023-10-13T01:38:10;6.43;;;3.78;;
76403;SDS011;65232;48.358;2.122;2023-10-13T01:38:36;10.20;;;3.58;;
76403;SDS011;65232;48.358;2.122;2023-10-13T01:39:03;8.32;;;4.00;;
76403;SDS011;65232;48.358;2.122;2023-10-13T01:39:28;8.75;;;3.95;;
76403;SDS011;65232;48.358;2.122;2023-10-13T01:39:54;9.38;;;4.28;;
76403;SDS011;65232;48.358;2.122;2023-10-13T01:40:19;10.55;;;3.80;;
76403;SDS011;65232;48.358;2.122;2023-10-13T01:40:45;8.68;;;3.80;;
76403;SDS011;65232;48.358;2.122;2023-10-13T01:41:16;8.82;;;3.90;;
76403;SDS011;65232;48.358;2.122;2023-10-13T01:41:42;9.65;;;3.72;;
76403;SDS011;65232;48.358;2.122;2023-10-13T01:42:08;10.13;;;3.90;;
76403;SDS011;65232;48.358;2.122;2023-10-13T01:42:33;9.95;;;3.95;;
76403;SDS011;65232;48.358;2.122;2023-10-13T01:43:02;9.20;;;4.75;;
76403;SDS011;65232;48.358;2.122;2023-10-13T01:43:29;7.85;;;4.20;;
76403;SDS011;65232;48.358;2.122;2023-10-13T01:43:54;10.25;;;4.85;;
76403;SDS011;65232;48.358;2.122;2023-10-13T01:44:25;12.68;;;4.63;;
76403;SDS011;65232;48.358;2.122;2023-10-13T01:44:54;10.25;;;4.22;;
76403;SDS011;65232;48.358;2.122;2023-10-13T01:45:30;11.65;;;3.90;;
76403;SDS011;65232;48.358;2.122;2023-10-13T01:45:55;10.52;;;4.20;;
76403;SDS011;65232;48.358;2.122;2023-10-13T01:46:21;7.18;;;3.55;;
76403;SDS011;65232;48.358;2.122;2023-10-13T01:46:47;10.50;;;3.72;;
76403;SDS011;65232;48.358;2.122;2023-10-13T01:47:13;7.47;;;3.75;;
76403;SDS011;65232;48.358;2.122;2023-10-13T01:47:38;8.23;;;3.47;;
76403;SDS011;65232;48.358;2.122;2023-10-13T01:48:04;13.63;;;4.15;;
76403;SDS011;65232;48.358;2.122;2023-10-13T01:48:32;8.65;;;3.80;;
76403;SDS011;65232;48.358;2.122;2023-10-13T01:48:57;8.48;;;3.80;;
76403;SDS011;65232;48.358;2.122;2023-10-13T01:49:23;12.23;;;4.25;;
76403;SDS011;65232;48.358;2.122;2023-10-13T01:49:49;10.63;;;3.80;;
76403;SDS011;65232;48.358;2.122;2023-10-13T01:50:15;13.95;;;4.35;;
76403;SDS011;65232;48.358;2.122;2023-10-13T01:50:46;11.95;;;4.30;;
76403;SDS011;65232;48.358;2.122;2023-10-13T01:51:13;13.55;;;4.65;;
76403;SDS011;65232;48.358;2.122;2023-10-13T01:51:38;8.68;;;4.03;;
76403;SDS011;65232;48.358;2.122;2023-10-13T01:52:04;8.95;;;3.92;;
76403;SDS011;65232;48.358;2.122;2023-10-13T01:52:30;12.05;;;4.25;;
76403;SDS011;65232;48.358;2.122;2023-10-13T01:52:55;10.30;;;4.30;;
76403;SDS011;65232;48.358;2.122;2023-10-13T01:53:41;10.00;;;4.53;;
76403;SDS011;65232;48.358;2.122;2023-10-13T01:54:07;8.60;;;3.72;;
76403;SDS011;65232;48.358;2.122;2023-10-13T01:54:39;12.30;;;4.35;;
76403;SDS011;65232;48.358;2.122;2023-10-13T01:55:06;14.13;;;4.50;;
76403;SDS011;65232;48.358;2.122;2023-10-13T01:55:32;11.45;;;4.22;;
76403;SDS011;65232;48.358;2.122;2023-10-13T01:56:08;10.43;;;4.22;;
76403;SDS011;65232;48.358;2.122;2023-10-13T01:56:36;10.90;;;4.43;;
76403;SDS011;65232;48.358;2.122;2023-10-13T01:57:07;11.25;;;4.38;;
76403;SDS011;65232;48.358;2.122;2023-10-13T01:57:33;10.60;;;4.25;;
76403;SDS011;65232;48.358;2.122;2023-10-13T01:57:58;11.35;;;3.97;;
76403;SDS011;65232;48.358;2.122;2023-10-13T01:58:24;8.60;;;4.35;;
76403;SDS011;65232;48.358;2.122;2023-10-13T01:58:51;11.13;;;4.20;;
76403;SDS011;65232;48.358;2.122;2023-10-13T01:59:18;10.13;;;4.20;;
76403;SDS011;65232;48.358;2.122;2023-10-13T01:59:44;11.70;;;4.28;;
76403;SDS011;65232;48.358;2.122;2023-10-13T02:00:10;6.90;;;4.10;;
76403;SDS011;65232;48.358;2.122;2023-10-13T02:00:44;7.78;;;3.47;;
76403;SDS011;65232;48.358;2.122;2023-10-13T02:01:12;9.68;;;3.95;;
76403;SDS011;65232;48.358;2.122;2023-10-13T02:01:39;11.23;;;4.15;;
76403;SDS011;65232;48.358;2.122;2023-10-13T02:02:06;9.77;;;4.25;;
76403;SDS011;65232;48.358;2.122;2023-10-13T02:02:32;9.98;;;3.85;;
76403;SDS011;65232;48.358;2.122;2023-10-13T02:02:57;8.25;;;4.85;;
76403;SDS011;65232;48.358;2.122;2023-10-13T02:03:27;8.35;;;3.90;;
76403;SDS011;65232;48.358;2.122;2023-10-13T02:03:55;10.07;;;3.92;;
76403;SDS011;65232;48.358;2.122;2023-10-13T02:04:29;7.95;;;3.95;;
76403;SDS011;65232;48.358;2.122;2023-10-13T02:05:01;12.65;;;4.13;;
76403;SDS011;65232;48.358;2.122;2023-10-13T02:05:27;7.93;;;3.85;;
76403;SDS011;65232;48.358;2.122;2023-10-13T02:05:58;14.23;;;4.72;;
76403;SDS011;65232;48.358;2.122;2023-10-13T02:06:33;8.48;;;4.28;;
76403;SDS011;65232;48.358;2.122;2023-10-13T02:07:01;12.30;;;4.10;;
76403;SDS011;65232;48.358;2.122;2023-10-13T02:07:26;11.57;;;4.32;;
76403;SDS011;65232;48.358;2.122;2023-10-13T02:07:54;11.68;;;4.22;;
76403;SDS011;65232;48.358;2.122;2023-10-13T02:08:23;12.95;;;4.50;;
76403;SDS011;65232;48.358;2.122;2023-10-13T02:08:50;9.27;;;4.20;;
76403;SDS011;65232;48.358;2.122;2023-10-13T02:09:22;12.18;;;4.72;;
76403;SDS011;65232;48.358;2.122;2023-10-13T02:10:20;9.15;;;3.80;;
76403;SDS011;65232;48.358;2.122;2023-10-13T02:10:50;11.15;;;3.95;;
76403;SDS011;65232;48.358;2.122;2023-10-13T02:11:16;9.15;;;4.28;;
76403;SDS011;65232;48.358;2.122;2023-10-13T02:11:44;11.00;;;4.13;;
76403;SDS011;65232;48.358;2.122;2023-10-13T02:12:13;11.63;;;4.22;;
76403;SDS011;65232;48.358;2.122;2023-10-13T02:12:39;10.95;;;4.07;;
76403;SDS011;65232;48.358;2.122;2023-10-13T02:13:07;11.65;;;4.70;;
76403;SDS011;65232;48.358;2.122;2023-10-13T02:14:13;7.90;;;3.70;;
76403;SDS011;65232;48.358;2.122;2023-10-13T02:14:42;10.70;;;4.65;;
76403;SDS011;65232;48.358;2.122;2023-10-13T02:15:11;10.32;;;3.83;;
76403;SDS011;65232;48.358;2.122;2023-10-13T02:15:45;8.88;;;4.00;;
76403;SDS011;65232;48.358;2.122;2023-10-13T02:16:12;8.25;;;3.97;;
76403;SDS011;65232;48.358;2.122;2023-10-13T02:16:38;11.50;;;4.22;;
76403;SDS011;65232;48.358;2.122;2023-10-13T02:17:04;12.68;;;4.20;;
76403;SDS011;65232;48.358;2.122;2023-10-13T02:17:39;8.85;;;4.10;;
76403;SDS011;65232;48.358;2.122;2023-10-13T02:18:07;9.32;;;4.22;;
76403;SDS011;65232;48.358;2.122;2023-10-13T02:18:34;8.88;;;3.85;;
76403;SDS011;65232;48.358;2.122;2023-10-13T02:19:06;10.27;;;4.28;;
76403;SDS011;65232;48.358;2.122;2023-10-13T02:19:40;8.38;;;3.72;;
76403;SDS011;65232;48.358;2.122;2023-10-13T02:20:09;8.07;;;4.47;;
76403;SDS011;65232;48.358;2.122;2023-10-13T02:20:39;12.55;;;4.40;;
76403;SDS011;65232;48.358;2.122;2023-10-13T02:21:08;9.60;;;4.13;;
76403;SDS011;65232;48.358;2.122;2023-10-13T02:21:39;12.63;;;4.72;;
76403;SDS011;65232;48.358;2.122;2023-10-13T02:22:06;11.43;;;3.92;;
76403;SDS011;65232;48.358;2.122;2023-10-13T02:22:34;12.10;;;3.90;;
76403;SDS011;65232;48.358;2.122;2023-10-13T02:23:02;11.05;;;4.07;;
76403;SDS011;65232;48.358;2.122;2023-10-13T02:23:35;10.95;;;4.25;;
76403;SDS011;65232;48.358;2.122;2023-10-13T02:24:08;8.05;;;3.92;;
76403;SDS011;65232;48.358;2.122;2023-10-13T02:24:38;10.05;;;4.03;;
76403;SDS011;65232;48.358;2.122;2023-10-13T02:25:05;12.88;;;4.30;;
76403;SDS011;65232;48.358;2.122;2023-10-13T02:25:32;10.20;;;4.30;;
76403;SDS011;65232;48.358;2.122;2023-10-13T02:26:00;9.63;;;4.10;;
76403;SDS011;65232;48.358;2.122;2023-10-13T02:26:30;10.98;;;4.05;;
76403;SDS011;65232;48.358;2.122;2023-10-13T02:26:56;10.27;;;4.60;;
76403;SDS011;65232;48.358;2.122;2023-10-13T02:27:53;10.48;;;4.50;;
76403;SDS011;65232;48.358;2.122;2023-10-13T02:28:23;8.60;;;3.58;;
76403;SDS011;65232;48.358;2.122;2023-10-13T02:28:53;9.35;;;4.13;;
76403;SDS011;65232;48.358;2.122;2023-10-13T02:29:22;11.27;;;4.10;;
76403;SDS011;65232;48.358;2.122;2023-10-13T02:29:48;9.57;;;4.10;;
76403;SDS011;65232;48.358;2.122;2023-10-13T02:30:14;7.32;;;3.97;;
76403;SDS011;65232;48.358;2.122;2023-10-13T02:30:43;12.27;;;4.82;;
76403;SDS011;65232;48.358;2.122;2023-10-13T02:31:09;12.23;;;4.22;;
76403;SDS011;65232;48.358;2.122;2023-10-13T02:31:36;10.77;;;4.15;;
76403;SDS011;65232;48.358;2.122;2023-10-13T02:32:03;10.00;;;4.22;;
76403;SDS011;65232;48.358;2.122;2023-10-13T02:32:29;12.02;;;4.40;;
76403;SDS011;65232;48.358;2.122;2023-10-13T02:32:55;9.73;;;3.97;;
76403;SDS011;65232;48.358;2.122;2023-10-13T02:33:21;11.27;;;4.07;;
76403;SDS011;65232;48.358;2.122;2023-10-13T02:33:47;10.07;;;4.13;;
76403;SDS011;65232;48.358;2.122;2023-10-13T02:34:12;10.75;;;4.80;;
76403;SDS011;65232;48.358;2.122;2023-10-13T02:35:09;10.75;;;4.07;;
76403;SDS011;65232;48.358;2.122;2023-10-13T02:35:41;10.65;;;4.00;;
76403;SDS011;65232;48.358;2.122;2023-10-13T02:36:06;11.48;;;3.88;;
76403;SDS011;65232;48.358;2.122;2023-10-13T02:36:32;11.73;;;4.20;;
76403;SDS011;65232;48.358;2.122;2023-10-13T02:37:13;6.50;;;3.63;;
76403;SDS011;65232;48.358;2.122;2023-10-13T02:37:39;10.75;;;4.13;;
76403;SDS011;65232;48.358;2.122;2023-10-13T02:38:08;11.43;;;3.80;;
76403;SDS011;65232;48.358;2.122;2023-10-13T02:38:36;11.70;;;4.20;;
76403;SDS011;65232;48.358;2.122;2023-10-13T02:39:03;11.38;;;3.80;;
76403;SDS011;65232;48.358;2.122;2023-10-13T02:39:32;8.45;;;4.32;;
76403;SDS011;65232;48.358;2.122;2023-10-13T02:40:01;9.68;;;4.70;;
76403;SDS011;65232;48.358;2.122;2023-10-13T02:40:27;9.45;;;4.07;;
76403;SDS011;65232;48.358;2.122;2023-10-13T02:40:53;11.10;;;4.10;;
76403;SDS011;65232;48.358;2.122;2023-10-13T02:41:19;9.82;;;3.75;;
76403;SDS011;65232;48.358;2.122;2023-10-13T02:41:53;5.78;;;3.67;;
76403;SDS011;65232;48.358;2.122;2023-10-13T02:42:20;9.38;;;4.10;;
76403;SDS011;65232;48.358;2.122;2023-10-13T02:42:49;11.90;;;4.20;;
76403;SDS011;65232;48.358;2.122;2023-10-13T02:43:14;10.82;;;4.28;;
76403;SDS011;65232;48.358;2.122;2023-10-13T02:43:40;10.23;;;3.53;;
76403;SDS011;65232;48.358;2.122;2023-10-13T02:44:08;7.72;;;3.85;;
76403;SDS011;65232;48.358;2.122;2023-10-13T02:44:35;7.15;;;3.97;;
76403;SDS011;65232;48.358;2.122;2023-10-13T02:45:01;9.18;;;4.18;;
76403;SDS011;65232;48.358;2.122;2023-10-13T02:45:29;11.02;;;4.15;;
76403;SDS011;65232;48.358;2.122;2023-10-13T02:45:54;8.02;;;4.20;;
76403;SDS011;65232;48.358;2.122;2023-10-13T02:46:23;9.02;;;3.88;;
76403;SDS011;65232;48.358;2.122;2023-10-13T02:46:54;10.35;;;3.50;;
76403;SDS011;65232;48.358;2.122;2023-10-13T02:47:21;11.70;;;4.00;;
76403;SDS011;65232;48.358;2.122;2023-10-13T02:47:49;8.70;;;4.10;;
76403;SDS011;65232;48.358;2.122;2023-10-13T02:48:34;10.77;;;3.60;;
76403;SDS011;65232;48.358;2.122;2023-10-13T02:49:06;7.43;;;3.97;;
76403;SDS011;65232;48.358;2.122;2023-10-13T02:49:35;7.80;;;3.83;;
76403;SDS011;65232;48.358;2.122;2023-10-13T02:50:02;7.30;;;3.47;;
76403;SDS011;65232;48.358;2.122;2023-10-13T02:50:32;12.77;;;5.22;;
76403;SDS011;65232;48.358;2.122;2023-10-13T02:51:27;8.52;;;4.35;;
76403;SDS011;65232;48.358;2.122;2023-10-13T02:52:01;11.43;;;4.15;;
76403;SDS011;65232;48.358;2.122;2023-10-13T02:52:30;10.63;;;4.45;;
76403;SDS011;65232;48.358;2.122;2023-10-13T02:53:03;9.02;;;4.45;;
76403;SDS011;65232;48.358;2.122;2023-10-13T02:53:37;10.07;;;4.13;;
76403;SDS011;65232;48.358;2.122;2023-10-13T02:54:03;9.88;;;4.20;;
76403;SDS011;65232;48.358;2.122;2023-10-13T02:54:35;11.00;;;4.45;;
76403;SDS011;65232;48.358;2.122;2023-10-13T02:55:15;11.32;;;4.50;;
76403;SDS011;65232;48.358;2.122;2023-10-13T02:55:50;10.23;;;4.35;;
76403;SDS011;65232;48.358;2.122;2023-10-13T02:56:18;11.98;;;4.50;;
76403;SDS011;65232;48.358;2.122;2023-10-13T02:56:47;13.18;;;4.47;;
76403;SDS011;65232;48.358;2.122;2023-10-13T02:57:22;11.18;;;4.60;;
76403;SDS011;65232;48.358;2.122;2023-10-13T02:57:48;10.80;;;4.38;;